sensor_id;sensor_type;location;lat;lon;timestamp;P1;durP1;ratioP1;P2;durP2;ratioP2
65368;SDS011;51970;53.484;49.488;2022-11-23T00:01:46;10.15;;;4.97;;
65368;SDS011;51970;53.484;49.488;2022-11-23T00:04:12;9.88;;;5.03;;
65368;SDS011;51970;53.484;49.488;2022-11-23T00:06:39;11.45;;;7.38;;
65368;SDS011;51970;53.484;49.488;2022-11-23T00:09:05;11.57;;;7.90;;
65368;SDS011;51970;53.484;49.488;2022-11-23T00:11:35;8.77;;;4.28;;
65368;SDS011;51970;53.484;49.488;2022-11-23T00:14:01;10.52;;;7.03;;
65368;SDS011;51970;53.484;49.488;2022-11-23T00:16:28;12.57;;;7.60;;
65368;SDS011;51970;53.484;49.488;2022-11-23T00:18:55;12.65;;;4.88;;
65368;SDS011;51970;53.484;49.488;2022-11-23T00:21:23;10.50;;;7.60;;
65368;SDS011;51970;53.484;49.488;2022-11-23T00:23:51;9.80;;;4.47;;
65368;SDS011;51970;53.484;49.488;2022-11-23T00:26:17;9.40;;;4.45;;
65368;SDS011;51970;53.484;49.488;2022-11-23T00:28:43;10.13;;;4.65;;
65368;SDS011;51970;53.484;49.488;2022-11-23T00:31:14;13.27;;;5.28;;
65368;SDS011;51970;53.484;49.488;2022-11-23T00:33:42;10.70;;;5.13;;
65368;SDS011;51970;53.484;49.488;2022-11-23T00:36:14;12.73;;;7.97;;
65368;SDS011;51970;53.484;49.488;2022-11-23T00:38:41;11.15;;;5.25;;
65368;SDS011;51970;53.484;49.488;2022-11-23T00:41:09;11.13;;;6.32;;
65368;SDS011;51970;53.484;49.488;2022-11-23T00:43:37;7.72;;;3.90;;
65368;SDS011;51970;53.484;49.488;2022-11-23T00:46:05;10.27;;;5.22;;
65368;SDS011;51970;53.484;49.488;2022-11-23T00:48:38;9.35;;;4.10;;
65368;SDS011;51970;53.484;49.488;2022-11-23T00:51:06;9.75;;;4.07;;
65368;SDS011;51970;53.484;49.488;2022-11-23T00:53:34;9.70;;;4.95;;
65368;SDS011;51970;53.484;49.488;2022-11-23T00:56:00;11.88;;;5.38;;
65368;SDS011;51970;53.484;49.488;2022-11-23T00:58:26;9.40;;;5.13;;
65368;SDS011;51970;53.484;49.488;2022-11-23T01:01:03;8.73;;;4.88;;
65368;SDS011;51970;53.484;49.488;2022-11-23T01:03:31;11.07;;;4.60;;
65368;SDS011;51970;53.484;49.488;2022-11-23T01:06:05;8.90;;;3.85;;
65368;SDS011;51970;53.484;49.488;2022-11-23T01:08:33;11.05;;;4.78;;
65368;SDS011;51970;53.484;49.488;2022-11-23T01:11:00;8.90;;;5.00;;
65368;SDS011;51970;53.484;49.488;2022-11-23T01:13:28;11.23;;;5.20;;
65368;SDS011;51970;53.484;49.488;2022-11-23T01:15:54;10.35;;;4.15;;
65368;SDS011;51970;53.484;49.488;2022-11-23T01:18:21;9.02;;;4.07;;
65368;SDS011;51970;53.484;49.488;2022-11-23T01:20:47;10.52;;;4.22;;
65368;SDS011;51970;53.484;49.488;2022-11-23T01:23:13;11.32;;;7.13;;
65368;SDS011;51970;53.484;49.488;2022-11-23T01:25:39;11.52;;;4.93;;
65368;SDS011;51970;53.484;49.488;2022-11-23T01:28:05;11.77;;;5.88;;
65368;SDS011;51970;53.484;49.488;2022-11-23T01:30:31;9.80;;;5.57;;
65368;SDS011;51970;53.484;49.488;2022-11-23T01:32:59;9.40;;;4.28;;
65368;SDS011;51970;53.484;49.488;2022-11-23T01:35:25;9.98;;;4.55;;
65368;SDS011;51970;53.484;49.488;2022-11-23T01:37:51;6.82;;;3.45;;
65368;SDS011;51970;53.484;49.488;2022-11-23T01:40:17;10.45;;;4.35;;
65368;SDS011;51970;53.484;49.488;2022-11-23T01:42:56;12.75;;;5.00;;
65368;SDS011;51970;53.484;49.488;2022-11-23T01:48:02;11.98;;;5.22;;
65368;SDS011;51970;53.484;49.488;2022-11-23T01:50:33;9.30;;;3.90;;
65368;SDS011;51970;53.484;49.488;2022-11-23T01:52:59;8.70;;;4.45;;
65368;SDS011;51970;53.484;49.488;2022-11-23T01:55:26;14.45;;;9.32;;
65368;SDS011;51970;53.484;49.488;2022-11-23T01:57:52;11.13;;;4.85;;
65368;SDS011;51970;53.484;49.488;2022-11-23T02:00:19;8.25;;;3.63;;
65368;SDS011;51970;53.484;49.488;2022-11-23T02:02:47;8.00;;;3.60;;
65368;SDS011;51970;53.484;49.488;2022-11-23T02:05:36;7.53;;;3.75;;
65368;SDS011;51970;53.484;49.488;2022-11-23T02:08:06;8.23;;;4.03;;
65368;SDS011;51970;53.484;49.488;2022-11-23T02:10:34;9.73;;;6.00;;
65368;SDS011;51970;53.484;49.488;2022-11-23T02:13:03;7.68;;;3.53;;
65368;SDS011;51970;53.484;49.488;2022-11-23T02:15:32;7.90;;;3.50;;
65368;SDS011;51970;53.484;49.488;2022-11-23T02:18:01;11.93;;;6.90;;
65368;SDS011;51970;53.484;49.488;2022-11-23T02:20:29;9.23;;;4.63;;
65368;SDS011;51970;53.484;49.488;2022-11-23T02:28:14;9.02;;;4.00;;
65368;SDS011;51970;53.484;49.488;2022-11-23T02:30:48;9.23;;;3.50;;
65368;SDS011;51970;53.484;49.488;2022-11-23T02:33:18;9.20;;;4.40;;
65368;SDS011;51970;53.484;49.488;2022-11-23T02:35:51;8.45;;;3.72;;
65368;SDS011;51970;53.484;49.488;2022-11-23T02:38:24;9.00;;;4.45;;
65368;SDS011;51970;53.484;49.488;2022-11-23T02:40:54;8.52;;;3.45;;
65368;SDS011;51970;53.484;49.488;2022-11-23T02:43:23;7.35;;;3.70;;
65368;SDS011;51970;53.484;49.488;2022-11-23T02:45:55;9.57;;;5.03;;
65368;SDS011;51970;53.484;49.488;2022-11-23T02:48:23;8.23;;;4.43;;
65368;SDS011;51970;53.484;49.488;2022-11-23T02:50:50;8.48;;;4.13;;
65368;SDS011;51970;53.484;49.488;2022-11-23T02:53:16;8.32;;;4.28;;
65368;SDS011;51970;53.484;49.488;2022-11-23T02:55:42;12.65;;;5.13;;
65368;SDS011;51970;53.484;49.488;2022-11-23T02:58:08;10.60;;;4.30;;
65368;SDS011;51970;53.484;49.488;2022-11-23T03:00:34;9.57;;;4.95;;
65368;SDS011;51970;53.484;49.488;2022-11-23T03:03:01;8.23;;;3.90;;
65368;SDS011;51970;53.484;49.488;2022-11-23T03:05:27;7.72;;;3.47;;
65368;SDS011;51970;53.484;49.488;2022-11-23T03:07:53;9.00;;;7.10;;
65368;SDS011;51970;53.484;49.488;2022-11-23T03:10:20;11.43;;;5.60;;
65368;SDS011;51970;53.484;49.488;2022-11-23T03:12:46;8.45;;;4.40;;
65368;SDS011;51970;53.484;49.488;2022-11-23T03:15:13;7.40;;;3.17;;
65368;SDS011;51970;53.484;49.488;2022-11-23T03:17:39;8.10;;;4.03;;
65368;SDS011;51970;53.484;49.488;2022-11-23T03:20:25;7.55;;;3.47;;
65368;SDS011;51970;53.484;49.488;2022-11-23T03:22:51;8.18;;;5.82;;
65368;SDS011;51970;53.484;49.488;2022-11-23T03:25:18;8.73;;;5.38;;
65368;SDS011;51970;53.484;49.488;2022-11-23T03:27:44;8.50;;;4.18;;
65368;SDS011;51970;53.484;49.488;2022-11-23T03:30:11;8.95;;;6.57;;
65368;SDS011;51970;53.484;49.488;2022-11-23T03:32:37;6.75;;;3.20;;
65368;SDS011;51970;53.484;49.488;2022-11-23T03:35:15;9.18;;;3.75;;
65368;SDS011;51970;53.484;49.488;2022-11-23T03:37:42;9.30;;;4.38;;
65368;SDS011;51970;53.484;49.488;2022-11-23T03:40:15;6.32;;;3.08;;
65368;SDS011;51970;53.484;49.488;2022-11-23T03:43:25;8.30;;;4.65;;
65368;SDS011;51970;53.484;49.488;2022-11-23T03:46:03;13.00;;;6.65;;
65368;SDS011;51970;53.484;49.488;2022-11-23T03:48:29;7.75;;;5.28;;
65368;SDS011;51970;53.484;49.488;2022-11-23T03:50:55;9.43;;;7.63;;
65368;SDS011;51970;53.484;49.488;2022-11-23T03:53:25;7.78;;;3.67;;
65368;SDS011;51970;53.484;49.488;2022-11-23T03:55:51;8.10;;;3.60;;
65368;SDS011;51970;53.484;49.488;2022-11-23T03:58:24;10.95;;;4.55;;
65368;SDS011;51970;53.484;49.488;2022-11-23T04:00:53;7.35;;;3.50;;
65368;SDS011;51970;53.484;49.488;2022-11-23T04:03:33;6.68;;;2.97;;
65368;SDS011;51970;53.484;49.488;2022-11-23T04:06:09;9.95;;;4.90;;
65368;SDS011;51970;53.484;49.488;2022-11-23T04:08:36;8.02;;;4.18;;
65368;SDS011;51970;53.484;49.488;2022-11-23T04:11:04;8.32;;;3.58;;
65368;SDS011;51970;53.484;49.488;2022-11-23T04:13:31;8.52;;;3.40;;
65368;SDS011;51970;53.484;49.488;2022-11-23T04:15:58;10.25;;;7.20;;
65368;SDS011;51970;53.484;49.488;2022-11-23T04:18:25;8.27;;;4.40;;
65368;SDS011;51970;53.484;49.488;2022-11-23T04:20:58;7.32;;;4.10;;
65368;SDS011;51970;53.484;49.488;2022-11-23T04:23:26;8.50;;;3.80;;
65368;SDS011;51970;53.484;49.488;2022-11-23T04:26:22;6.72;;;3.70;;
65368;SDS011;51970;53.484;49.488;2022-11-23T04:28:49;7.57;;;4.22;;
65368;SDS011;51970;53.484;49.488;2022-11-23T04:31:39;8.10;;;4.45;;
65368;SDS011;51970;53.484;49.488;2022-11-23T04:34:17;6.90;;;3.28;;
65368;SDS011;51970;53.484;49.488;2022-11-23T04:37:07;9.90;;;6.57;;
65368;SDS011;51970;53.484;49.488;2022-11-23T04:39:44;7.32;;;3.38;;
65368;SDS011;51970;53.484;49.488;2022-11-23T04:42:11;7.72;;;4.05;;
65368;SDS011;51970;53.484;49.488;2022-11-23T04:44:44;7.10;;;3.85;;
65368;SDS011;51970;53.484;49.488;2022-11-23T04:47:14;8.32;;;4.13;;
65368;SDS011;51970;53.484;49.488;2022-11-23T04:49:40;8.90;;;3.67;;
65368;SDS011;51970;53.484;49.488;2022-11-23T04:52:07;9.23;;;3.90;;
65368;SDS011;51970;53.484;49.488;2022-11-23T04:54:53;8.02;;;4.20;;
65368;SDS011;51970;53.484;49.488;2022-11-23T04:57:19;9.75;;;4.85;;
65368;SDS011;51970;53.484;49.488;2022-11-23T05:00:07;22.42;;;9.02;;
65368;SDS011;51970;53.484;49.488;2022-11-23T05:02:40;12.65;;;5.53;;
65368;SDS011;51970;53.484;49.488;2022-11-23T05:05:20;12.60;;;5.57;;
65368;SDS011;51970;53.484;49.488;2022-11-23T05:08:09;9.65;;;4.05;;
65368;SDS011;51970;53.484;49.488;2022-11-23T05:11:07;10.75;;;4.43;;
65368;SDS011;51970;53.484;49.488;2022-11-23T05:13:58;10.00;;;5.53;;
65368;SDS011;51970;53.484;49.488;2022-11-23T05:18:01;8.25;;;4.18;;
65368;SDS011;51970;53.484;49.488;2022-11-23T05:21:47;8.23;;;4.40;;
65368;SDS011;51970;53.484;49.488;2022-11-23T05:25:03;7.97;;;4.05;;
65368;SDS011;51970;53.484;49.488;2022-11-23T05:28:27;7.07;;;3.88;;
65368;SDS011;51970;53.484;49.488;2022-11-23T05:32:36;8.35;;;4.45;;
65368;SDS011;51970;53.484;49.488;2022-11-23T05:40:20;9.93;;;4.68;;
65368;SDS011;51970;53.484;49.488;2022-11-23T05:44:05;8.43;;;4.38;;
65368;SDS011;51970;53.484;49.488;2022-11-23T05:48:05;8.55;;;4.13;;
65368;SDS011;51970;53.484;49.488;2022-11-23T05:51:48;9.43;;;7.32;;
65368;SDS011;51970;53.484;49.488;2022-11-23T05:56:11;9.52;;;5.72;;
65368;SDS011;51970;53.484;49.488;2022-11-23T05:59:26;10.30;;;5.63;;
65368;SDS011;51970;53.484;49.488;2022-11-23T06:07:46;9.70;;;6.50;;
65368;SDS011;51970;53.484;49.488;2022-11-23T06:11:12;11.57;;;6.22;;
65368;SDS011;51970;53.484;49.488;2022-11-23T06:22:31;9.93;;;3.90;;
65368;SDS011;51970;53.484;49.488;2022-11-23T06:26:08;9.73;;;4.93;;
65368;SDS011;51970;53.484;49.488;2022-11-23T06:29:22;10.63;;;3.92;;
65368;SDS011;51970;53.484;49.488;2022-11-23T06:35:18;7.70;;;2.80;;
65368;SDS011;51970;53.484;49.488;2022-11-23T06:38:31;5.40;;;2.67;;
65368;SDS011;51970;53.484;49.488;2022-11-23T06:41:55;7.80;;;4.32;;
65368;SDS011;51970;53.484;49.488;2022-11-23T06:44:23;6.55;;;2.92;;
65368;SDS011;51970;53.484;49.488;2022-11-23T06:47:41;5.25;;;2.50;;
65368;SDS011;51970;53.484;49.488;2022-11-23T06:50:15;6.13;;;2.85;;
65368;SDS011;51970;53.484;49.488;2022-11-23T06:53:57;10.90;;;3.03;;
65368;SDS011;51970;53.484;49.488;2022-11-23T06:57:09;8.55;;;3.15;;
65368;SDS011;51970;53.484;49.488;2022-11-23T07:00:44;7.65;;;3.78;;
65368;SDS011;51970;53.484;49.488;2022-11-23T07:03:54;9.45;;;4.60;;
65368;SDS011;51970;53.484;49.488;2022-11-23T07:07:08;10.55;;;4.85;;
65368;SDS011;51970;53.484;49.488;2022-11-23T07:09:58;8.57;;;4.55;;
65368;SDS011;51970;53.484;49.488;2022-11-23T07:12:30;12.35;;;7.85;;
65368;SDS011;51970;53.484;49.488;2022-11-23T07:15:16;12.18;;;3.88;;
65368;SDS011;51970;53.484;49.488;2022-11-23T07:18:51;11.00;;;6.88;;
65368;SDS011;51970;53.484;49.488;2022-11-23T07:21:55;9.50;;;4.65;;
65368;SDS011;51970;53.484;49.488;2022-11-23T07:26:21;6.30;;;3.15;;
65368;SDS011;51970;53.484;49.488;2022-11-23T07:29:35;4.78;;;2.25;;
65368;SDS011;51970;53.484;49.488;2022-11-23T07:32:28;6.82;;;3.58;;
65368;SDS011;51970;53.484;49.488;2022-11-23T07:35:38;8.15;;;3.53;;
65368;SDS011;51970;53.484;49.488;2022-11-23T07:39:54;7.75;;;3.03;;
65368;SDS011;51970;53.484;49.488;2022-11-23T07:44:01;6.13;;;3.28;;
65368;SDS011;51970;53.484;49.488;2022-11-23T07:47:33;5.13;;;2.25;;
65368;SDS011;51970;53.484;49.488;2022-11-23T07:50:31;6.53;;;2.80;;
65368;SDS011;51970;53.484;49.488;2022-11-23T07:53:19;6.20;;;2.97;;
65368;SDS011;51970;53.484;49.488;2022-11-23T07:56:21;7.22;;;2.63;;
65368;SDS011;51970;53.484;49.488;2022-11-23T07:59:48;4.32;;;2.55;;
65368;SDS011;51970;53.484;49.488;2022-11-23T08:03:22;7.32;;;4.57;;
65368;SDS011;51970;53.484;49.488;2022-11-23T08:06:10;4.55;;;2.25;;
65368;SDS011;51970;53.484;49.488;2022-11-23T08:09:02;5.28;;;2.30;;
65368;SDS011;51970;53.484;49.488;2022-11-23T08:11:54;5.88;;;4.40;;
65368;SDS011;51970;53.484;49.488;2022-11-23T08:24:30;6.57;;;5.07;;
65368;SDS011;51970;53.484;49.488;2022-11-23T08:27:21;7.97;;;2.88;;
65368;SDS011;51970;53.484;49.488;2022-11-23T08:30:20;8.15;;;2.80;;
65368;SDS011;51970;53.484;49.488;2022-11-23T08:32:58;7.97;;;1.95;;
65368;SDS011;51970;53.484;49.488;2022-11-23T08:36:10;6.90;;;5.70;;
65368;SDS011;51970;53.484;49.488;2022-11-23T08:38:51;8.77;;;6.18;;
65368;SDS011;51970;53.484;49.488;2022-11-23T08:46:15;5.60;;;2.88;;
65368;SDS011;51970;53.484;49.488;2022-11-23T08:49:34;5.85;;;4.40;;
65368;SDS011;51970;53.484;49.488;2022-11-23T08:52:19;5.20;;;1.92;;
65368;SDS011;51970;53.484;49.488;2022-11-23T08:55:08;6.38;;;4.75;;
65368;SDS011;51970;53.484;49.488;2022-11-23T08:57:35;6.55;;;4.07;;
65368;SDS011;51970;53.484;49.488;2022-11-23T09:00:03;5.57;;;1.98;;
65368;SDS011;51970;53.484;49.488;2022-11-23T09:02:40;4.32;;;2.20;;
65368;SDS011;51970;53.484;49.488;2022-11-23T09:06:04;4.65;;;2.05;;
65368;SDS011;51970;53.484;49.488;2022-11-23T09:09:03;4.97;;;2.33;;
65368;SDS011;51970;53.484;49.488;2022-11-23T09:11:54;5.28;;;2.28;;
65368;SDS011;51970;53.484;49.488;2022-11-23T09:14:39;5.50;;;1.85;;
65368;SDS011;51970;53.484;49.488;2022-11-23T09:17:34;4.95;;;2.08;;
65368;SDS011;51970;53.484;49.488;2022-11-23T09:20:11;5.13;;;2.78;;
65368;SDS011;51970;53.484;49.488;2022-11-23T09:23:08;5.32;;;2.42;;
65368;SDS011;51970;53.484;49.488;2022-11-23T09:25:34;7.38;;;5.82;;
65368;SDS011;51970;53.484;49.488;2022-11-23T09:28:01;5.40;;;2.38;;
65368;SDS011;51970;53.484;49.488;2022-11-23T09:31:02;5.05;;;2.25;;
65368;SDS011;51970;53.484;49.488;2022-11-23T09:33:29;3.50;;;1.27;;
65368;SDS011;51970;53.484;49.488;2022-11-23T09:36:18;3.83;;;1.92;;
65368;SDS011;51970;53.484;49.488;2022-11-23T09:38:48;4.10;;;1.55;;
65368;SDS011;51970;53.484;49.488;2022-11-23T09:50:52;10.38;;;2.95;;
65368;SDS011;51970;53.484;49.488;2022-11-23T09:53:45;9.40;;;3.72;;
65368;SDS011;51970;53.484;49.488;2022-11-23T09:56:42;8.77;;;4.68;;
65368;SDS011;51970;53.484;49.488;2022-11-23T09:59:30;12.70;;;6.80;;
65368;SDS011;51970;53.484;49.488;2022-11-23T10:02:16;6.72;;;2.85;;
65368;SDS011;51970;53.484;49.488;2022-11-23T10:05:03;5.97;;;2.55;;
65368;SDS011;51970;53.484;49.488;2022-11-23T10:08:03;5.15;;;2.75;;
65368;SDS011;51970;53.484;49.488;2022-11-23T10:24:28;5.20;;;2.53;;
65368;SDS011;51970;53.484;49.488;2022-11-23T10:27:56;6.07;;;1.95;;
65368;SDS011;51970;53.484;49.488;2022-11-23T10:30:32;6.30;;;3.33;;
65368;SDS011;51970;53.484;49.488;2022-11-23T10:34:41;6.13;;;3.17;;
65368;SDS011;51970;53.484;49.488;2022-11-23T10:38:41;5.22;;;2.00;;
65368;SDS011;51970;53.484;49.488;2022-11-23T10:41:34;5.57;;;2.92;;
65368;SDS011;51970;53.484;49.488;2022-11-23T10:44:45;7.30;;;3.92;;
65368;SDS011;51970;53.484;49.488;2022-11-23T10:54:51;6.22;;;3.08;;
65368;SDS011;51970;53.484;49.488;2022-11-23T11:01:21;5.82;;;4.18;;
65368;SDS011;51970;53.484;49.488;2022-11-23T11:04:12;5.35;;;2.67;;
65368;SDS011;51970;53.484;49.488;2022-11-23T11:07:28;6.50;;;2.28;;
65368;SDS011;51970;53.484;49.488;2022-11-23T11:10:33;5.85;;;4.18;;
65368;SDS011;51970;53.484;49.488;2022-11-23T11:17:33;4.40;;;1.90;;
65368;SDS011;51970;53.484;49.488;2022-11-23T11:20:31;3.75;;;2.55;;
65368;SDS011;51970;53.484;49.488;2022-11-23T11:24:13;3.50;;;1.73;;
65368;SDS011;51970;53.484;49.488;2022-11-23T11:27:49;5.35;;;2.45;;
65368;SDS011;51970;53.484;49.488;2022-11-23T11:31:50;4.78;;;1.58;;
65368;SDS011;51970;53.484;49.488;2022-11-23T11:57:35;5.95;;;2.35;;
65368;SDS011;51970;53.484;49.488;2022-11-23T12:02:18;5.80;;;2.35;;
65368;SDS011;51970;53.484;49.488;2022-11-23T12:06:52;6.28;;;2.60;;
65368;SDS011;51970;53.484;49.488;2022-11-23T12:13:48;6.80;;;3.67;;
65368;SDS011;51970;53.484;49.488;2022-11-23T12:28:57;8.60;;;4.15;;
65368;SDS011;51970;53.484;49.488;2022-11-23T12:31:05;7.60;;;3.72;;
65368;SDS011;51970;53.484;49.488;2022-11-23T12:37:37;7.30;;;4.00;;
65368;SDS011;51970;53.484;49.488;2022-11-23T12:45:15;8.32;;;3.78;;
65368;SDS011;51970;53.484;49.488;2022-11-23T12:52:58;12.50;;;4.70;;
65368;SDS011;51970;53.484;49.488;2022-11-23T13:01:41;9.63;;;6.15;;
65368;SDS011;51970;53.484;49.488;2022-11-23T13:08:14;6.72;;;3.08;;
65368;SDS011;51970;53.484;49.488;2022-11-23T13:09:04;6.72;;;3.08;;
65368;SDS011;51970;53.484;49.488;2022-11-23T13:21:47;5.82;;;3.05;;
65368;SDS011;51970;53.484;49.488;2022-11-23T13:32:59;6.57;;;2.97;;
65368;SDS011;51970;53.484;49.488;2022-11-23T13:36:41;6.25;;;2.72;;
65368;SDS011;51970;53.484;49.488;2022-11-23T13:42:38;8.35;;;5.47;;
65368;SDS011;51970;53.484;49.488;2022-11-23T13:50:21;11.27;;;3.88;;
65368;SDS011;51970;53.484;49.488;2022-11-23T13:54:20;6.40;;;2.22;;
65368;SDS011;51970;53.484;49.488;2022-11-23T13:57:43;9.27;;;4.07;;
65368;SDS011;51970;53.484;49.488;2022-11-23T14:24:13;8.30;;;3.30;;
65368;SDS011;51970;53.484;49.488;2022-11-23T14:33:33;6.80;;;2.95;;
65368;SDS011;51970;53.484;49.488;2022-11-23T14:43:39;4.70;;;2.63;;
65368;SDS011;51970;53.484;49.488;2022-11-23T14:47:01;5.45;;;2.65;;
65368;SDS011;51970;53.484;49.488;2022-11-23T14:49:58;5.47;;;2.90;;
65368;SDS011;51970;53.484;49.488;2022-11-23T14:52:33;3.95;;;1.88;;
65368;SDS011;51970;53.484;49.488;2022-11-23T14:55:05;5.25;;;2.63;;
65368;SDS011;51970;53.484;49.488;2022-11-23T14:59:05;4.65;;;1.98;;
65368;SDS011;51970;53.484;49.488;2022-11-23T15:02:01;5.72;;;4.00;;
65368;SDS011;51970;53.484;49.488;2022-11-23T15:08:27;8.40;;;2.58;;
65368;SDS011;51970;53.484;49.488;2022-11-23T15:11:32;4.65;;;1.90;;
65368;SDS011;51970;53.484;49.488;2022-11-23T15:14:47;7.45;;;4.82;;
65368;SDS011;51970;53.484;49.488;2022-11-23T15:17:49;8.20;;;5.38;;
65368;SDS011;51970;53.484;49.488;2022-11-23T15:21:15;7.55;;;5.68;;
65368;SDS011;51970;53.484;49.488;2022-11-23T15:24:29;8.00;;;3.42;;
65368;SDS011;51970;53.484;49.488;2022-11-23T15:27:14;6.70;;;3.72;;
65368;SDS011;51970;53.484;49.488;2022-11-23T15:30:29;8.18;;;3.38;;
65368;SDS011;51970;53.484;49.488;2022-11-23T15:33:13;7.22;;;2.53;;
65368;SDS011;51970;53.484;49.488;2022-11-23T15:36:01;6.55;;;2.83;;
65368;SDS011;51970;53.484;49.488;2022-11-23T15:38:30;9.38;;;6.07;;
65368;SDS011;51970;53.484;49.488;2022-11-23T15:41:15;7.20;;;3.88;;
65368;SDS011;51970;53.484;49.488;2022-11-23T15:49:41;6.18;;;2.13;;
65368;SDS011;51970;53.484;49.488;2022-11-23T15:52:40;5.25;;;2.33;;
65368;SDS011;51970;53.484;49.488;2022-11-23T15:55:59;5.30;;;2.58;;
65368;SDS011;51970;53.484;49.488;2022-11-23T15:58:34;4.13;;;1.83;;
65368;SDS011;51970;53.484;49.488;2022-11-23T16:06:16;5.75;;;2.90;;
65368;SDS011;51970;53.484;49.488;2022-11-23T16:21:49;4.60;;;1.98;;
65368;SDS011;51970;53.484;49.488;2022-11-23T16:26:00;4.93;;;2.17;;
65368;SDS011;51970;53.484;49.488;2022-11-23T16:36:26;4.97;;;2.17;;
65368;SDS011;51970;53.484;49.488;2022-11-23T16:39:30;5.18;;;2.83;;
65368;SDS011;51970;53.484;49.488;2022-11-23T16:43:31;4.35;;;2.25;;
65368;SDS011;51970;53.484;49.488;2022-11-23T16:46:27;4.25;;;1.50;;
65368;SDS011;51970;53.484;49.488;2022-11-23T16:50:04;5.25;;;2.00;;
65368;SDS011;51970;53.484;49.488;2022-11-23T16:58:20;4.88;;;3.63;;
65368;SDS011;51970;53.484;49.488;2022-11-23T17:01:26;5.70;;;4.30;;
65368;SDS011;51970;53.484;49.488;2022-11-23T17:04:00;4.93;;;2.05;;
65368;SDS011;51970;53.484;49.488;2022-11-23T17:07:55;4.68;;;2.15;;
65368;SDS011;51970;53.484;49.488;2022-11-23T17:11:30;3.80;;;1.60;;
65368;SDS011;51970;53.484;49.488;2022-11-23T17:14:52;4.22;;;2.00;;
65368;SDS011;51970;53.484;49.488;2022-11-23T17:22:01;4.82;;;2.40;;
65368;SDS011;51970;53.484;49.488;2022-11-23T17:25:22;9.68;;;2.45;;
65368;SDS011;51970;53.484;49.488;2022-11-23T17:28:24;5.18;;;2.00;;
65368;SDS011;51970;53.484;49.488;2022-11-23T17:31:58;4.72;;;2.88;;
65368;SDS011;51970;53.484;49.488;2022-11-23T17:38:34;4.43;;;2.22;;
65368;SDS011;51970;53.484;49.488;2022-11-23T17:41:51;5.20;;;2.60;;
65368;SDS011;51970;53.484;49.488;2022-11-23T17:44:53;4.10;;;1.70;;
65368;SDS011;51970;53.484;49.488;2022-11-23T17:47:27;5.40;;;3.88;;
65368;SDS011;51970;53.484;49.488;2022-11-23T17:50:49;4.28;;;1.90;;
65368;SDS011;51970;53.484;49.488;2022-11-23T17:58:29;4.68;;;2.75;;
65368;SDS011;51970;53.484;49.488;2022-11-23T18:01:27;4.50;;;2.22;;
65368;SDS011;51970;53.484;49.488;2022-11-23T18:08:19;6.85;;;2.45;;
65368;SDS011;51970;53.484;49.488;2022-11-23T18:11:32;5.75;;;2.72;;
65368;SDS011;51970;53.484;49.488;2022-11-23T18:13:58;4.55;;;2.05;;
65368;SDS011;51970;53.484;49.488;2022-11-23T18:16:47;5.18;;;2.33;;
65368;SDS011;51970;53.484;49.488;2022-11-23T18:19:55;5.03;;;2.45;;
65368;SDS011;51970;53.484;49.488;2022-11-23T18:22:29;4.22;;;2.15;;
65368;SDS011;51970;53.484;49.488;2022-11-23T18:25:24;5.43;;;2.55;;
65368;SDS011;51970;53.484;49.488;2022-11-23T18:29:24;5.20;;;2.60;;
65368;SDS011;51970;53.484;49.488;2022-11-23T18:32:24;7.93;;;3.28;;
65368;SDS011;51970;53.484;49.488;2022-11-23T18:34:56;6.25;;;2.78;;
65368;SDS011;51970;53.484;49.488;2022-11-23T18:37:49;6.35;;;3.03;;
65368;SDS011;51970;53.484;49.488;2022-11-23T18:40:15;6.70;;;3.58;;
65368;SDS011;51970;53.484;49.488;2022-11-23T18:42:49;10.68;;;4.10;;
65368;SDS011;51970;53.484;49.488;2022-11-23T18:45:20;6.95;;;3.25;;
65368;SDS011;51970;53.484;49.488;2022-11-23T18:48:17;9.88;;;3.45;;
65368;SDS011;51970;53.484;49.488;2022-11-23T18:51:00;7.82;;;5.07;;
65368;SDS011;51970;53.484;49.488;2022-11-23T18:53:29;6.55;;;3.38;;
65368;SDS011;51970;53.484;49.488;2022-11-23T18:56:02;6.28;;;3.50;;
65368;SDS011;51970;53.484;49.488;2022-11-23T18:58:39;7.30;;;3.22;;
65368;SDS011;51970;53.484;49.488;2022-11-23T19:01:37;5.95;;;3.20;;
65368;SDS011;51970;53.484;49.488;2022-11-23T19:04:29;8.55;;;3.97;;
65368;SDS011;51970;53.484;49.488;2022-11-23T19:07:03;6.95;;;2.80;;
65368;SDS011;51970;53.484;49.488;2022-11-23T19:09:41;12.23;;;6.10;;
65368;SDS011;51970;53.484;49.488;2022-11-23T19:12:17;5.00;;;2.08;;
65368;SDS011;51970;53.484;49.488;2022-11-23T19:15:06;6.80;;;3.63;;
65368;SDS011;51970;53.484;49.488;2022-11-23T19:18:05;6.80;;;5.18;;
65368;SDS011;51970;53.484;49.488;2022-11-23T19:20:33;7.88;;;3.33;;
65368;SDS011;51970;53.484;49.488;2022-11-23T19:23:02;4.53;;;2.80;;
65368;SDS011;51970;53.484;49.488;2022-11-23T19:25:42;4.50;;;2.28;;
65368;SDS011;51970;53.484;49.488;2022-11-23T19:28:30;5.32;;;2.00;;
65368;SDS011;51970;53.484;49.488;2022-11-23T19:31:13;6.80;;;3.35;;
65368;SDS011;51970;53.484;49.488;2022-11-23T19:34:02;7.30;;;2.58;;
65368;SDS011;51970;53.484;49.488;2022-11-23T19:36:38;6.38;;;4.75;;
65368;SDS011;51970;53.484;49.488;2022-11-23T19:39:35;4.57;;;2.03;;
65368;SDS011;51970;53.484;49.488;2022-11-23T19:42:01;4.53;;;2.40;;
65368;SDS011;51970;53.484;49.488;2022-11-23T19:44:29;5.13;;;2.20;;
65368;SDS011;51970;53.484;49.488;2022-11-23T19:46:59;5.35;;;1.80;;
65368;SDS011;51970;53.484;49.488;2022-11-23T19:49:36;5.72;;;1.88;;
65368;SDS011;51970;53.484;49.488;2022-11-23T19:52:06;5.35;;;3.03;;
65368;SDS011;51970;53.484;49.488;2022-11-23T19:54:32;4.43;;;2.30;;
65368;SDS011;51970;53.484;49.488;2022-11-23T19:57:10;5.30;;;2.42;;
65368;SDS011;51970;53.484;49.488;2022-11-23T19:59:37;4.57;;;2.15;;
65368;SDS011;51970;53.484;49.488;2022-11-23T20:02:03;6.60;;;5.35;;
65368;SDS011;51970;53.484;49.488;2022-11-23T20:04:29;3.95;;;1.77;;
65368;SDS011;51970;53.484;49.488;2022-11-23T20:06:56;3.70;;;2.00;;
65368;SDS011;51970;53.484;49.488;2022-11-23T20:09:26;6.45;;;3.47;;
65368;SDS011;51970;53.484;49.488;2022-11-23T20:11:54;6.38;;;2.28;;
65368;SDS011;51970;53.484;49.488;2022-11-23T20:14:20;6.57;;;5.28;;
65368;SDS011;51970;53.484;49.488;2022-11-23T20:16:46;4.65;;;2.13;;
65368;SDS011;51970;53.484;49.488;2022-11-23T20:19:15;5.28;;;2.45;;
65368;SDS011;51970;53.484;49.488;2022-11-23T20:21:41;4.90;;;2.40;;
65368;SDS011;51970;53.484;49.488;2022-11-23T20:24:10;6.45;;;5.28;;
65368;SDS011;51970;53.484;49.488;2022-11-23T20:26:38;6.28;;;4.90;;
65368;SDS011;51970;53.484;49.488;2022-11-23T20:29:06;4.65;;;2.05;;
65368;SDS011;51970;53.484;49.488;2022-11-23T20:31:34;5.90;;;3.08;;
65368;SDS011;51970;53.484;49.488;2022-11-23T20:34:01;5.82;;;2.17;;
65368;SDS011;51970;53.484;49.488;2022-11-23T20:36:28;5.90;;;4.28;;
65368;SDS011;51970;53.484;49.488;2022-11-23T20:38:56;5.82;;;2.80;;
65368;SDS011;51970;53.484;49.488;2022-11-23T20:41:26;8.35;;;4.82;;
65368;SDS011;51970;53.484;49.488;2022-11-23T20:43:54;4.78;;;2.53;;
65368;SDS011;51970;53.484;49.488;2022-11-23T20:46:25;9.18;;;2.30;;
65368;SDS011;51970;53.484;49.488;2022-11-23T20:48:52;5.05;;;2.55;;
65368;SDS011;51970;53.484;49.488;2022-11-23T20:51:23;5.32;;;2.38;;
65368;SDS011;51970;53.484;49.488;2022-11-23T20:53:52;8.32;;;2.65;;
65368;SDS011;51970;53.484;49.488;2022-11-23T20:56:19;7.30;;;4.50;;
65368;SDS011;51970;53.484;49.488;2022-11-23T20:58:46;5.88;;;2.88;;
65368;SDS011;51970;53.484;49.488;2022-11-23T21:01:14;4.25;;;1.85;;
65368;SDS011;51970;53.484;49.488;2022-11-23T21:03:43;5.10;;;2.38;;